Weather observations for the past three days for
Brooks Field Airport
Imperial (Metric)
Date Time (edt) Wind (mph) Vis. (mi.) Weather Sky Cond. Temperature (ºF) Relative Humidity Wind Chill (°F) Heat Index (°F) Pressure Precipitation (in)
Air Dwpt 6 hour altimeter (in) sea level (mb) 1 hr 3 hr 6 hr
Max. Min.
31 11:35 SW 9 10.00 Fair CLR 78.8 68 70% 81 30.07 0.0
31 11:15 W 7 10.00 Fair CLR 75.2 68 78% 76 30.06 0.0
31 10:55 Vrbl 3 10.00 A Few Clouds FEW110 75.2 68 78% 76 30.05 0.0
31 10:35 SW 5 10.00 Partly Cloudy FEW060 FEW070 SCT110 73.4 68 83% 30.04 0.0
31 10:16 SW 3 10.00 Partly Cloudy FEW048 SCT070 SCT095 73.4 68 83% 30.04 0.0
31 09:55 SW 3 10.00 A Few Clouds FEW047 FEW060 FEW120 73.4 68 83% 30.04 0.0
31 09:35 W 5 10.00 Partly Cloudy SCT110 73.4 68 83% 30.05 0.0
31 09:15 SW 3 10.00 Mostly Cloudy BKN100 73.4 68 83% 30.03 0.0
31 08:55 SW 5 10.00 Mostly Cloudy BKN100 73.4 68 83% 30.03 0.0
31 08:35 SW 3 10.00 Partly Cloudy FEW100 SCT120 71.6 68 88% 30.02 0.0
31 07:56 SW 5 10.00 Fair CLR 71.6 66.2 83% 30.02 0.0
31 07:35 S 7 10.00 Fair CLR 71.6 66.2 83% 30.01 0.0
31 07:15 S 6 10.00 A Few Clouds FEW120 71.6 66.2 83% 30.01 0.0
31 06:55 S 5 10.00 A Few Clouds FEW120 69.8 66.2 88% 30.01 0.0
31 06:35 S 5 10.00 Mostly Cloudy BKN120 69.8 66.2 88% 30.02 0.0
31 06:15 S 3 10.00 Mostly Cloudy BKN120 69.8 66.2 88% 30.02 0.0
31 05:55 S 3 10.00 Mostly Cloudy BKN120 69.8 66.2 88% 30.02 0.0
31 05:36 Vrbl 2 10.00 Overcast OVC120 69.8 66.2 88% 30.02 0.0
31 05:15 Vrbl 2 10.00 Overcast OVC110 69.8 66.2 88% 30.02 0.0
31 04:55 Vrbl 3 10.00 Overcast OVC110 69.8 66.2 88% 30.02 0.0
31 04:35 Vrbl 2 10.00 Overcast OVC100 71.6 66.2 83% 30.02 0.0
31 04:15 S 3 10.00 Mostly Cloudy BKN100 69.8 66.2 88% 30.01 0.0
31 03:55 S 5 10.00 Partly Cloudy SCT100 71.6 66.2 83% 30.01 0.0
31 03:35 S 3 10.00 Fair CLR 71.6 66.2 83% 30.01 0.0
31 03:16 S 5 10.00 Fair CLR 69.8 66.2 88% 30.01 0.0
31 02:55 S 5 10.00 A Few Clouds FEW120 71.6 66.2 83% 30.02 0.0
31 02:35 S 5 10.00 Mostly Cloudy FEW080 BKN120 71.6 66.2 83% 30.03 0.0
31 02:15 S 7 10.00 Mostly Cloudy BKN080 BKN120 73.4 68 83% 30.03 0.0
31 01:55 S 7 10.00 Overcast OVC120 73.4 68 75.6 69.6 83% 30.04 0.0
31 01:35 S 7 10.00 Overcast OVC120 73.4 68 83% 30.04 0.0
31 01:15 S 6 10.00 Overcast OVC110 73.4 66.2 78% 30.04 0.0
31 00:56 S 7 10.00 Mostly Cloudy BKN110 73.4 66.2 78% 30.04 0.0
31 00:35 S 7 10.00 Mostly Cloudy FEW080 BKN100 71.6 66.2 83% 30.03 0.0
31 00:15 S 8 10.00 Overcast FEW080 OVC110 71.6 66.2 83% 30.03 0.0
30 23:55 Vrbl 3 10.00 Mostly Cloudy BKN110 71.6 66.2 83% 30.03 0.0
30 23:35 Vrbl 2 10.00 Mostly Cloudy BKN100 69.8 64.4 83% 30.04 0.0
30 23:15 Vrbl 1 10.00 A Few Clouds FEW100 71.6 64.4 78% 30.05 0.0
30 22:55 S 3 10.00 Fair CLR 69.8 64.4 83% 30.04 0.0
30 22:36 S 3 10.00 Fair CLR 71.6 64.4 78% 30.05 0.0
30 22:15 S 5 10.00 Fair CLR 71.6 64.4 78% 30.04 0.0
30 21:55 S 3 10.00 Fair CLR 71.6 64.4 78% 30.04 0.0
30 21:35 SW 3 10.00 Fair CLR 71.6 64.4 78% 30.03 0.0
30 21:15 S 2 10.00 Fair CLR 71.6 64.4 78% 30.02 0.0
30 20:55 SW 5 10.00 Fair CLR 73.4 64.4 74% 30.02 0.0
30 20:35 SW 5 10.00 Fair CLR 73.4 64.4 74% 30.01 0.0
30 20:16 SW 6 10.00 Fair CLR 75.2 64.4 69% 77 30.01 0.0
30 19:55 SW 8 10.00 Fair CLR 75.2 64.4 81.1 72.5 69% 77 30 0.0
30 19:35 SW 12 G 17 10.00 Fair CLR 77 64.4 65% 79 30.01 0.0
30 19:15 SW 9 10.00 Fair CLR 77 66.2 69% 79 30.01 0.0
30 18:55 SW 8 10.00 Fair CLR 77 66.2 69% 79 30.01 0.0
30 18:35 SW 10 10.00 Fair CLR 77 66.2 69% 79 30.02 0.0
30 18:15 SW 8 10.00 A Few Clouds FEW075 78.8 66.2 65% 81 30.02 0.0
30 17:56 SW 9 10.00 Partly Cloudy SCT075 SCT100 SCT110 78.8 66.2 65% 81 30.03 0.0
30 17:35 SW 9 10.00 Mostly Cloudy BKN100 78.8 66.2 65% 81 30.03 0.0
30 17:15 SW 9 10.00 Mostly Cloudy BKN110 80.6 64.4 58% 82 30.03 0.0
30 16:55 SW 15 G 20 10.00 Mostly Cloudy BKN110 80.6 66.2 62% 83 30.03 0.0
30 16:35 SW 10 G 21 10.00 Mostly Cloudy BKN110 80.6 66.2 62% 83 30.03 0.0
30 16:15 SW 12 10.00 Overcast OVC110 78.8 66.2 65% 81 30.03 0.0
30 15:55 SW 10 G 17 10.00 Partly Cloudy SCT110 80.6 66.2 62% 83 30.03 0.0
30 15:36 SW 16 10.00 A Few Clouds FEW095 78.8 66.2 65% 81 30.02 0.0
30 15:15 SW 9 10.00 Mostly Cloudy BKN095 77 66.2 69% 79 30.01 0.0
30 14:55 S 14 G 18 10.00 Overcast OVC095 77 66.2 69% 79 30.02 0.0
30 14:35 SW 12 G 21 10.00 Mostly Cloudy BKN095 77 66.2 69% 79 30.02 0.0
30 14:15 S 12 G 16 9.00 Mostly Cloudy BKN095 75.2 68 78% 76 30.02 0.0
30 13:55 S 10 10.00 Overcast OVC095 73.4 66.2 72.9 64.6 78% 30.02 0.0
30 13:35 S 8 10.00 Overcast OVC095 71.6 66.2 83% 30.03 0.0
30 13:16 S 9 10.00 Mostly Cloudy BKN095 71.6 66.2 83% 30.03 0.0
30 12:55 S 8 10.00 Light Rain FEW095 FEW110 68 66.2 94% 30.03 0.0 0.01
30 12:35 S 10 10.00 Light Rain SCT046 BKN065 OVC100 68 64.4 88% 30.05 0.0
30 12:15 SW 12 10.00 Light Rain BKN045 BKN060 OVC065 68 64.4 88% 30.08 0.0
30 11:55 S 9 7.00 Light Rain SCT046 BKN060 OVC100 66.2 64.4 94% 30.07 0.0 0.04
30 11:35 S 9 7.00 Light Rain Fog/Mist OVC100 66.2 64.4 94% 30.09 0.0
30 11:15 S 8 4.00 Light Rain Fog/Mist OVC090 66.2 64.4 94% 30.11 0.0
30 10:56 S 6 2.50 Light Rain Fog/Mist OVC100 64.4 64.4 100% 30.12 0.0
30 10:35 S 5 3.00 Light Rain Fog/Mist FEW075 BKN100 OVC120 64.4 64.4 100% 30.13 0.0
30 10:15 SE 6 5.00 Light Rain Fog/Mist BKN090 BKN120 64.4 64.4 100% 30.12 0.0
30 09:55 E 3 1.75 Light Rain Fog/Mist FEW046 OVC090 64.4 64.4 100% 30.13 0.0 0.04
30 09:35 Vrbl 1 2.50 Light Rain Fog/Mist FEW060 FEW075 OVC100 64.4 64.4 100% 30.13 0.0
30 08:55 E 3 3.00 Light Rain Fog/Mist SCT055 SCT075 OVC100 64.4 64.4 100% 30.12 0.0 0.02
30 08:36 N 5 7.00 Light Rain SCT055 OVC090 64.4 64.4 100% 30.12 0.0
30 08:15 NE 3 7.00 Light Rain BKN090 OVC110 64.4 62.6 94% 30.1 0.0
30 07:55 SE 1 10.00 Light Rain OVC100 66.2 62.6 68.9 65.3 88% 30.08 0.0
30 07:35 SW 1 10.00 Light Rain FEW070 BKN090 OVC120 68 62.6 83% 30.06 0.0
30 07:15 S 2 10.00 Overcast BKN090 OVC110 68 60.8 78% 30.05 0.0
30 06:55 S 3 10.00 Mostly Cloudy BKN110 68 60.8 78% 30.05 0.0
30 06:35 Vrbl 6 10.00 Light Rain BKN100 BKN120 68 60.8 78% 30.05 0.0
30 06:16 S 6 10.00 Mostly Cloudy BKN110 68 62.6 83% 30.05 0.0
30 05:55 S 6 10.00 Mostly Cloudy BKN100 68 62.6 83% 30.06 0.0
30 05:35 S 5 10.00 Overcast OVC100 68 62.6 83% 30.07 0.0
30 05:15 S 5 10.00 Overcast OVC100 68 62.6 83% 30.07 0.0
30 04:55 S 5 10.00 Overcast OVC100 68 60.8 78% 30.08 0.0
30 04:35 S 3 10.00 Overcast OVC100 68 60.8 78% 30.07 0.0
30 04:15 SE 5 10.00 Overcast OVC100 68 62.6 83% 30.08 0.0
30 03:56 SE 5 10.00 Overcast OVC100 66.2 62.6 88% 30.08 0.0
30 03:35 E 3 10.00 Overcast OVC100 66.2 62.6 88% 30.09 0.0
30 03:15 NE 3 10.00 Light Rain OVC100 66.2 62.6 88% 30.09 0.0
30 02:55 E 2 10.00 Overcast OVC100 68 62.6 83% 30.09 0.0
30 02:35 SE 3 10.00 Overcast OVC100 68 62.6 83% 30.09 0.0
30 02:15 SE 2 10.00 Overcast BKN100 OVC120 68 62.6 83% 30.09 0.0
30 01:55 SE 2 10.00 Mostly Cloudy BKN110 68 62.6 74.1 66.7 83% 30.1 0.0
30 01:36 SE 3 10.00 Mostly Cloudy BKN110 66.2 62.6 88% 30.09 0.0
30 01:15 SE 3 10.00 Mostly Cloudy BKN110 68 62.6 83% 30.09 0.0
30 00:55 S 2 10.00 Light Rain OVC110 68 62.6 83% 30.1 0.0
30 00:35 SE 3 10.00 Overcast OVC100 68 62.6 83% 30.1 0.0
30 00:15 S 3 10.00 Mostly Cloudy BKN100 BKN120 68 62.6 83% 30.09 0.0
29 23:55 SE 3 10.00 Overcast OVC100 68 62.6 83% 30.09 0.0
29 23:35 SE 3 10.00 Overcast OVC100 68 64.4 88% 30.09 0.0
29 23:16 S 3 7.00 Overcast OVC100 68 64.4 88% 30.09 0.0
29 22:55 S 3 10.00 Light Rain FEW070 FEW085 BKN110 69.8 62.6 78% 30.09 0.0
29 22:35 SE 2 10.00 Fair CLR 69.8 62.6 78% 30.1 0.0
29 22:15 S 1 10.00 Fair CLR 68 64.4 88% 30.1 0.0
29 21:55 Calm 10.00 Fair CLR 69.8 62.6 78% 30.1 0.0
29 21:35 S 2 10.00 A Few Clouds FEW075 FEW090 FEW120 68 64.4 88% 30.09 0.0
29 21:15 SE 1 10.00 Light Rain FEW075 SCT100 SCT120 69.8 62.6 78% 30.09 0.0
29 20:56 SW 2 10.00 Fair CLR 71.6 62.6 73% 30.1 0.0
29 20:35 S 2 10.00 Fair CLR 71.6 62.6 73% 30.09 0.0
29 20:15 SW 2 10.00 A Few Clouds FEW120 73.4 62.6 69% 30.09 0.0
29 19:55 S 3 10.00 A Few Clouds FEW120 73.4 60.8 80.8 73.8 65% 30.09 0.0
29 19:35 S 3 10.00 A Few Clouds FEW047 73.4 62.6 69% 30.09 0.0
29 19:15 S 3 10.00 A Few Clouds FEW047 75.2 62.6 65% 77 30.1 0.0
29 18:55 S 2 10.00 Fair CLR 75.2 64.4 69% 77 30.1 0.0
29 18:36 SW 3 8.00 Fair CLR 77 62.6 61% 79 30.11 0.0
29 18:15 S 3 10.00 Fair CLR 77 60.8 57% 79 30.1 0.0
29 17:55 W 5 10.00 A Few Clouds FEW046 77 60.8 57% 79 30.11 0.0
29 17:35 SW 3 10.00 Partly Cloudy SCT046 SCT060 78.8 60.8 54% 80 30.11 0.0
29 17:15 W 7 10.00 Partly Cloudy SCT043 SCT050 78.8 60.8 54% 80 30.11 0.0
29 16:55 Vrbl 6 10.00 Fair CLR 78.8 60.8 54% 80 30.12 0.0
29 16:35 SW 7 10.00 A Few Clouds FEW060 78.8 60.8 54% 80 30.12 0.0
29 16:16 W 6 10.00 A Few Clouds FEW040 FEW050 78.8 60.8 54% 80 30.13 0.0
29 15:55 S 5 10.00 A Few Clouds FEW055 78.8 60.8 54% 80 30.14 0.0
29 15:35 SW 9 10.00 A Few Clouds FEW060 78.8 60.8 54% 80 30.15 0.0
29 15:15 SW 7 10.00 A Few Clouds FEW046 FEW065 77 62.6 61% 79 30.15 0.0
29 14:55 SW 7 10.00 Mostly Cloudy FEW044 SCT055 BKN065 77 60.8 57% 79 30.16 0.0
29 14:35 W 7 10.00 Mostly Cloudy SCT044 SCT050 BKN065 77 60.8 57% 79 30.16 0.0
29 14:15 SW 7 10.00 Partly Cloudy SCT044 SCT050 77 60.8 57% 79 30.16 0.0
29 13:56 Vrbl 7 10.00 Mostly Cloudy BKN044 BKN050 78.8 60.8 54% 80 30.17 0.0
29 13:35 S 7 10.00 Partly Cloudy SCT048 SCT055 78.8 59 51% 80 30.18 0.0
29 13:15 SW 7 10.00 Partly Cloudy SCT050 77 60.8 57% 79 30.19 0.0
29 12:55 SW 7 10.00 Fair CLR 77 60.8 57% 79 30.19 0.0
29 12:35 SW 8 10.00 Fair CLR 77 59 54% 79 30.19 0.0
29 12:15 SW 9 10.00 Fair CLR 77 59 54% 79 30.2 0.0
29 11:55 S 5 10.00 Fair CLR 77 59 54% 79 30.2 0.0
29 11:36 SW 8 10.00 Fair CLR 77 59 54% 79 30.19 0.0
29 11:15 SW 10 10.00 Fair CLR 75.2 59 57% 78 30.2 0.0
29 10:55 SW 7 10.00 Fair CLR 73.4 59 61% 30.2 0.0
29 10:35 SW 7 6.00 Fair with Haze CLR 73.4 59 61% 30.21 0.0
29 10:15 SW 7 10.00 Fair CLR 71.6 59 65% 30.2 0.0
29 09:55 S 6 10.00 Fair CLR 69.8 57.2 64% 30.19 0.0
29 09:35 S 6 10.00 Fair CLR 68 57.2 69% 30.19 0.0
29 09:16 S 6 10.00 Fair CLR 68 55.4 64% 30.19 0.0
29 08:55 S 6 10.00 Fair CLR 66.2 55.4 68% 30.18 0.0
29 08:35 S 5 10.00 Fair CLR 64.4 55.4 73% 30.19 0.0
29 08:15 S 2 10.00 Partly Cloudy SCT075 62.6 53.6 73% 30.19 0.0
29 07:55 Vrbl 3 10.00 Mostly Cloudy FEW060 BKN075 62.6 53.6 63.3 60.6 73% 30.19 0.0
29 07:35 S 5 10.00 Mostly Cloudy FEW049 BKN075 60.8 53.6 77% 30.18 0.0
29 07:15 SW 2 10.00 Mostly Cloudy FEW060 BKN075 60.8 53.6 77% 30.18 0.0
29 06:55 S 5 10.00 Overcast BKN060 OVC075 62.6 53.6 73% 30.18 0.0
29 06:36 S 3 10.00 Overcast BKN060 OVC075 62.6 53.6 73% 30.18 0.0
29 06:15 Vrbl 1 10.00 Mostly Cloudy BKN075 60.8 53.6 77% 30.17 0.0
29 05:55 S 3 10.00 Fair CLR 60.8 53.6 77% 30.16 0.0
29 05:35 S 5 10.00 Fair CLR 62.6 53.6 73% 30.17 0.0
29 05:15 S 5 10.00 A Few Clouds FEW075 62.6 53.6 73% 30.17 0.0
29 04:55 Vrbl 3 10.00 Mostly Cloudy BKN075 62.6 53.6 73% 30.17 0.0
29 04:35 S 5 10.00 Overcast OVC075 62.6 55.4 77% 30.17 0.0
29 04:16 Vrbl 3 10.00 Mostly Cloudy BKN060 BKN070 62.6 55.4 77% 30.17 0.0
29 03:55 S 3 10.00 A Few Clouds FEW070 62.6 55.4 77% 30.17 0.0
29 03:35 S 3 10.00 Fair CLR 62.6 55.4 77% 30.17 0.0
29 03:15 S 5 10.00 Fair CLR 62.6 55.4 77% 30.17 0.0
29 02:55 S 3 10.00 Fair CLR 62.6 55.4 77% 30.17 0.0
29 02:35 S 6 10.00 Fair CLR 62.6 55.4 77% 30.17 0.0
29 02:15 S 5 10.00 A Few Clouds FEW060 62.6 55.4 77% 30.17 0.0
29 01:56 S 5 10.00 Partly Cloudy SCT060 62.6 55.4 77% 30.18 0.0
29 01:35 S 6 10.00 A Few Clouds FEW060 64.4 55.4 73% 30.18 0.0
29 01:15 S 5 10.00 A Few Clouds FEW060 64.4 55.4 73% 30.18 0.0
29 00:55 S 6 10.00 Fair CLR 64.4 55.4 73% 30.17 0.0
29 00:35 S 5 10.00 Fair CLR 64.4 55.4 73% 30.16 0.0
29 00:15 S 6 10.00 Fair CLR 64.4 55.4 73% 30.16 0.0
28 23:55 S 5 10.00 Fair CLR 64.4 55.4 73% 30.16 0.0
28 23:15 SE 5 10.00 Fair CLR 64.4 57.2 78% 30.16 0.0
28 22:55 SE 3 10.00 Fair CLR 62.6 57.2 83% 30.16 0.0
28 22:35 SE 3 10.00 Fair CLR 62.6 57.2 83% 30.15 0.0
28 22:15 SE 3 10.00 Fair CLR 64.4 57.2 78% 30.15 0.0
28 21:55 SE 2 10.00 Fair CLR 64.4 57.2 78% 30.15 0.0
28 21:35 SE 3 10.00 Fair CLR 64.4 59 83% 30.15 0.0
28 21:16 S 2 10.00 Fair CLR 64.4 57.2 78% 30.14 0.0
28 20:55 S 2 10.00 Fair CLR 64.4 59 83% 30.13 0.0
28 20:35 E 2 10.00 Fair CLR 66.2 57.2 73% 30.12 0.0
28 20:15 S 2 10.00 Fair CLR 69.8 57.2 64% 30.12 0.0
28 19:55 S 2 10.00 Fair CLR 73.4 55.4 80.1 73 53% 30.13 0.0
28 19:35 S 3 10.00 Fair CLR 75.2 55.4 50% 78 30.13 0.0
28 19:15 S 3 10.00 Fair CLR 77 57.2 51% 79 30.13 0.0
28 18:56 S 3 10.00 Fair CLR 77 55.4 47% 79 30.14 0.0
28 18:35 SE 3 10.00 Partly Cloudy SCT090 77 55.4 47% 79 30.14 0.0
28 18:15 SE 6 10.00 Partly Cloudy SCT090 78.8 55.4 45% 79 30.13 0.0
28 17:55 SE 6 10.00 A Few Clouds FEW090 78.8 57.2 48% 80 30.14 0.0
28 17:35 SE 3 10.00 Fair CLR 77 55.4 47% 79 30.14 0.0
28 17:15 SE 6 10.00 Partly Cloudy FEW060 SCT080 SCT090 77 55.4 47% 79 30.14 0.0
28 16:55 E 6 10.00 Mostly Cloudy BKN060 BKN080 78.8 55.4 45% 79 30.14 0.0
28 16:36 SE 5 10.00 Mostly Cloudy BKN075 77 53.6 44% 78 30.14 0.0
28 16:15 S 3 10.00 Partly Cloudy FEW060 SCT075 77 53.6 44% 78 30.15 0.0
28 15:55 Vrbl 1 10.00 Fair CLR 78.8 53.6 42% 79 30.15 0.0
28 15:35 NW 5 10.00 A Few Clouds FEW070 78.8 51.8 39% 79 30.15 0.0
28 15:15 W 5 10.00 Fair CLR 78.8 51.8 39% 79 30.16 0.0
28 14:55 Vrbl 2 10.00 Fair CLR 78.8 53.6 42% 79 30.16 0.0
28 14:35 W 3 10.00 Fair CLR 78.8 51.8 39% 79 30.17 0.0
28 14:16 Vrbl 3 10.00 Fair CLR 78.8 53.6 42% 79 30.17 0.0
28 13:55 Vrbl 2 8.00 Fair CLR 77 51.8 78.3 53.6 42% 78 30.17 0.0
28 13:35 E 6 9.00 Fair CLR 77 51.8 42% 78 30.18 0.0
28 13:15 N 5 10.00 Fair CLR 75.2 51.8 44% 78 30.18 0.0
28 12:55 Vrbl 3 10.00 Fair CLR 75.2 51.8 44% 78 30.18 0.0
28 12:35 E 6 10.00 Fair CLR 75.2 53.6 47% 78 30.18 0.0
28 12:15 Vrbl 3 10.00 Fair CLR 73.4 53.6 50% 30.18 0.0
28 11:56 Vrbl 3 8.00 Fair CLR 73.4 53.6 50% 30.18 0.0
Date Time (edt) Wind (mph) Vis. (mi.) Weather Sky Cond. Air Dwpt Max. Min. Relative Humidity Wind Chill (°F) Heat Index (°F) altimeter (in) sea level (mb) 1 hr 3 hr 6 hr
6 hour
Temperature (ºF) Pressure Precipitation (in)